Twin Lakes, Idaho
Current Conditions -  °F | °C
As of 5:15 AM on Monday 22 Dec 2014 (Local Time) from KCOE Reporting Station
Clear Clear  
Wind Chill:   Ceiling: Unl
Heat Index:   Visibility: 10mi
Dew Point: -2°   Wind: 0mph
Humidity: 75%   Direction: NA
Pressure: 30.01"   Gusts: NA
Location:  47.8426°N, 116.907°W
Report Text: KCOE 221315Z AUTO 00000KT 10SM CLR 02/M02 A3001 RMK AO1
Loading
Personal Weather Stations






























Interactive Weather Map New forecast layout! Learn more

10-Day Weather Forecast

Advertisements
Track Severe Weather on mobile